sensor_id;sensor_type;location;lat;lon;timestamp;P1;P2;P0
76238;PMS7003;65043;48.392;-4.472;2023-12-14T00:01:40;1.00;0.00;0.00
76238;PMS7003;65043;48.392;-4.472;2023-12-14T00:04:06;0.75;0.75;0.00
76238;PMS7003;65043;48.392;-4.472;2023-12-14T00:06:32;1.00;1.00;0.00
76238;PMS7003;65043;48.392;-4.472;2023-12-14T00:08:58;1.00;1.00;0.00
76238;PMS7003;65043;48.392;-4.472;2023-12-14T00:11:23;1.00;1.00;0.50
76238;PMS7003;65043;48.392;-4.472;2023-12-14T00:13:49;0.00;0.00;0.00
76238;PMS7003;65043;48.392;-4.472;2023-12-14T00:16:14;1.00;0.00;0.00
76238;PMS7003;65043;48.392;-4.472;2023-12-14T00:18:40;1.00;1.00;1.00
76238;PMS7003;65043;48.392;-4.472;2023-12-14T00:21:06;1.00;0.00;0.00
76238;PMS7003;65043;48.392;-4.472;2023-12-14T00:23:33;0.00;0.00;0.00
76238;PMS7003;65043;48.392;-4.472;2023-12-14T00:25:59;0.50;0.50;0.00
76238;PMS7003;65043;48.392;-4.472;2023-12-14T00:28:25;2.00;0.75;0.00
76238;PMS7003;65043;48.392;-4.472;2023-12-14T00:30:50;0.25;0.25;0.00
76238;PMS7003;65043;48.392;-4.472;2023-12-14T00:33:15;1.25;0.75;0.00
76238;PMS7003;65043;48.392;-4.472;2023-12-14T00:35:41;2.00;0.00;0.00
76238;PMS7003;65043;48.392;-4.472;2023-12-14T00:38:06;1.00;1.00;0.00
76238;PMS7003;65043;48.392;-4.472;2023-12-14T00:40:32;0.75;0.25;0.00
76238;PMS7003;65043;48.392;-4.472;2023-12-14T00:42:57;0.00;0.00;0.00
76238;PMS7003;65043;48.392;-4.472;2023-12-14T00:45:23;0.00;0.00;0.00
76238;PMS7003;65043;48.392;-4.472;2023-12-14T00:47:48;1.25;0.00;0.00
76238;PMS7003;65043;48.392;-4.472;2023-12-14T00:50:14;1.00;1.00;0.00
76238;PMS7003;65043;48.392;-4.472;2023-12-14T00:52:39;3.75;1.50;1.00
76238;PMS7003;65043;48.392;-4.472;2023-12-14T00:55:05;2.25;1.00;1.00
76238;PMS7003;65043;48.392;-4.472;2023-12-14T00:57:31;1.00;1.00;1.00
76238;PMS7003;65043;48.392;-4.472;2023-12-14T00:59:57;4.25;2.75;2.00
76238;PMS7003;65043;48.392;-4.472;2023-12-14T01:02:22;5.50;4.75;2.75
76238;PMS7003;65043;48.392;-4.472;2023-12-14T01:04:48;9.50;6.00;3.00
76238;PMS7003;65043;48.392;-4.472;2023-12-14T01:07:13;3.75;2.75;2.00
76238;PMS7003;65043;48.392;-4.472;2023-12-14T01:09:41;6.25;3.75;2.00
76238;PMS7003;65043;48.392;-4.472;2023-12-14T01:12:07;6.50;5.50;3.00
76238;PMS7003;65043;48.392;-4.472;2023-12-14T01:14:32;3.75;2.75;1.75
76238;PMS7003;65043;48.392;-4.472;2023-12-14T01:16:58;4.75;4.75;3.00
76238;PMS7003;65043;48.392;-4.472;2023-12-14T01:19:24;7.25;5.00;3.50
76238;PMS7003;65043;48.392;-4.472;2023-12-14T01:21:50;4.00;3.75;2.00
76238;PMS7003;65043;48.392;-4.472;2023-12-14T01:24:16;8.00;3.25;2.00
76238;PMS7003;65043;48.392;-4.472;2023-12-14T01:26:41;4.00;2.00;1.00
76238;PMS7003;65043;48.392;-4.472;2023-12-14T01:29:07;3.00;1.00;1.00
76238;PMS7003;65043;48.392;-4.472;2023-12-14T01:31:32;2.00;2.00;1.00
76238;PMS7003;65043;48.392;-4.472;2023-12-14T01:33:58;2.00;2.00;1.00
76238;PMS7003;65043;48.392;-4.472;2023-12-14T01:36:24;1.00;1.00;0.00
76238;PMS7003;65043;48.392;-4.472;2023-12-14T01:38:50;0.25;0.00;0.00
76238;PMS7003;65043;48.392;-4.472;2023-12-14T01:41:16;1.00;1.00;0.00
76238;PMS7003;65043;48.392;-4.472;2023-12-14T01:43:42;1.75;0.25;0.00
76238;PMS7003;65043;48.392;-4.472;2023-12-14T01:46:08;2.25;0.00;0.00
76238;PMS7003;65043;48.392;-4.472;2023-12-14T01:48:33;1.25;1.00;0.00
76238;PMS7003;65043;48.392;-4.472;2023-12-14T01:50:59;0.25;0.25;0.00
76238;PMS7003;65043;48.392;-4.472;2023-12-14T01:53:25;0.00;0.00;0.00
76238;PMS7003;65043;48.392;-4.472;2023-12-14T01:55:50;2.00;1.75;0.00
76238;PMS7003;65043;48.392;-4.472;2023-12-14T01:58:16;4.50;0.00;0.00
76238;PMS7003;65043;48.392;-4.472;2023-12-14T02:03:35;4.75;1.50;0.00
76238;PMS7003;65043;48.392;-4.472;2023-12-14T02:06:00;1.00;1.00;0.00
76238;PMS7003;65043;48.392;-4.472;2023-12-14T02:08:27;1.50;1.00;0.00
76238;PMS7003;65043;48.392;-4.472;2023-12-14T02:10:53;1.75;0.00;0.00
76238;PMS7003;65043;48.392;-4.472;2023-12-14T02:13:19;0.75;0.75;0.00
76238;PMS7003;65043;48.392;-4.472;2023-12-14T02:18:47;1.75;0.00;0.00
76238;PMS7003;65043;48.392;-4.472;2023-12-14T02:21:13;1.50;0.50;0.00
76238;PMS7003;65043;48.392;-4.472;2023-12-14T02:23:43;0.75;0.25;0.00
76238;PMS7003;65043;48.392;-4.472;2023-12-14T02:26:09;0.00;0.00;0.00
76238;PMS7003;65043;48.392;-4.472;2023-12-14T02:28:35;0.50;0.50;0.25
76238;PMS7003;65043;48.392;-4.472;2023-12-14T02:31:01;1.00;1.00;0.75
76238;PMS7003;65043;48.392;-4.472;2023-12-14T02:33:26;3.00;0.00;0.00
76238;PMS7003;65043;48.392;-4.472;2023-12-14T02:35:51;3.25;1.25;0.75
76238;PMS7003;65043;48.392;-4.472;2023-12-14T02:38:17;1.25;0.25;0.00
76238;PMS7003;65043;48.392;-4.472;2023-12-14T02:40:43;3.00;1.00;0.00
76238;PMS7003;65043;48.392;-4.472;2023-12-14T02:43:11;1.75;1.00;0.00
76238;PMS7003;65043;48.392;-4.472;2023-12-14T02:45:36;0.50;0.50;0.00
76238;PMS7003;65043;48.392;-4.472;2023-12-14T02:48:02;1.25;1.25;0.00
76238;PMS7003;65043;48.392;-4.472;2023-12-14T02:50:27;3.00;2.00;0.00
76238;PMS7003;65043;48.392;-4.472;2023-12-14T02:52:53;4.75;1.50;0.25
76238;PMS7003;65043;48.392;-4.472;2023-12-14T02:55:18;2.00;1.00;1.00
76238;PMS7003;65043;48.392;-4.472;2023-12-14T02:57:44;2.00;2.00;0.50
76238;PMS7003;65043;48.392;-4.472;2023-12-14T03:00:10;1.00;1.00;1.00
76238;PMS7003;65043;48.392;-4.472;2023-12-14T03:02:36;2.00;1.00;0.25
76238;PMS7003;65043;48.392;-4.472;2023-12-14T03:05:02;1.75;1.00;0.00
76238;PMS7003;65043;48.392;-4.472;2023-12-14T03:07:27;2.00;1.25;1.00
76238;PMS7003;65043;48.392;-4.472;2023-12-14T03:09:53;1.00;1.00;0.75
76238;PMS7003;65043;48.392;-4.472;2023-12-14T03:12:18;1.00;1.00;0.00
76238;PMS7003;65043;48.392;-4.472;2023-12-14T03:14:44;2.50;2.50;1.00
76238;PMS7003;65043;48.392;-4.472;2023-12-14T03:17:09;1.00;1.00;0.25
76238;PMS7003;65043;48.392;-4.472;2023-12-14T03:19:39;1.25;0.00;0.00
76238;PMS7003;65043;48.392;-4.472;2023-12-14T03:22:05;1.00;1.00;0.00
76238;PMS7003;65043;48.392;-4.472;2023-12-14T03:24:34;0.00;0.00;0.00
76238;PMS7003;65043;48.392;-4.472;2023-12-14T03:27:01;0.75;0.75;0.00
76238;PMS7003;65043;48.392;-4.472;2023-12-14T03:29:27;2.25;1.50;0.00
76238;PMS7003;65043;48.392;-4.472;2023-12-14T03:31:54;2.00;1.00;0.00
76238;PMS7003;65043;48.392;-4.472;2023-12-14T03:34:20;1.75;1.00;0.00
76238;PMS7003;65043;48.392;-4.472;2023-12-14T03:36:45;0.00;0.00;0.00
76238;PMS7003;65043;48.392;-4.472;2023-12-14T03:39:11;0.50;0.25;0.00
76238;PMS7003;65043;48.392;-4.472;2023-12-14T03:41:37;0.50;0.50;0.50
76238;PMS7003;65043;48.392;-4.472;2023-12-14T03:44:02;1.00;1.00;0.00
76238;PMS7003;65043;48.392;-4.472;2023-12-14T03:46:28;3.00;0.25;0.00
76238;PMS7003;65043;48.392;-4.472;2023-12-14T03:48:54;2.75;0.75;0.00
76238;PMS7003;65043;48.392;-4.472;2023-12-14T03:51:20;0.75;0.75;0.00
76238;PMS7003;65043;48.392;-4.472;2023-12-14T03:53:46;1.00;1.00;0.00
76238;PMS7003;65043;48.392;-4.472;2023-12-14T03:56:11;0.25;0.00;0.00
76238;PMS7003;65043;48.392;-4.472;2023-12-14T03:58:37;2.00;0.25;0.00
76238;PMS7003;65043;48.392;-4.472;2023-12-14T04:01:02;0.00;0.00;0.00
76238;PMS7003;65043;48.392;-4.472;2023-12-14T04:03:28;1.00;0.00;0.00
76238;PMS7003;65043;48.392;-4.472;2023-12-14T04:05:53;1.75;1.00;0.00
76238;PMS7003;65043;48.392;-4.472;2023-12-14T04:08:19;1.25;1.00;0.00
76238;PMS7003;65043;48.392;-4.472;2023-12-14T04:10:45;3.75;1.00;0.75
76238;PMS7003;65043;48.392;-4.472;2023-12-14T04:13:10;4.00;1.00;0.00
76238;PMS7003;65043;48.392;-4.472;2023-12-14T04:15:36;2.00;2.00;1.00
76238;PMS7003;65043;48.392;-4.472;2023-12-14T04:18:01;0.00;0.00;0.00
76238;PMS7003;65043;48.392;-4.472;2023-12-14T04:20:30;1.00;0.00;0.00
76238;PMS7003;65043;48.392;-4.472;2023-12-14T04:22:55;1.75;1.50;0.50
76238;PMS7003;65043;48.392;-4.472;2023-12-14T04:25:20;1.00;1.00;0.00
76238;PMS7003;65043;48.392;-4.472;2023-12-14T04:27:46;1.00;1.00;0.00
76238;PMS7003;65043;48.392;-4.472;2023-12-14T04:30:11;2.75;0.75;0.00
76238;PMS7003;65043;48.392;-4.472;2023-12-14T04:32:37;0.00;0.00;0.00
76238;PMS7003;65043;48.392;-4.472;2023-12-14T04:35:04;1.75;1.00;0.00
76238;PMS7003;65043;48.392;-4.472;2023-12-14T04:37:30;1.50;0.25;0.00
76238;PMS7003;65043;48.392;-4.472;2023-12-14T04:39:56;2.00;2.00;0.00
76238;PMS7003;65043;48.392;-4.472;2023-12-14T04:42:22;2.75;0.75;0.00
76238;PMS7003;65043;48.392;-4.472;2023-12-14T04:44:48;0.75;0.00;0.00
76238;PMS7003;65043;48.392;-4.472;2023-12-14T04:47:13;1.00;0.75;0.00
76238;PMS7003;65043;48.392;-4.472;2023-12-14T04:49:39;1.25;1.00;0.00
76238;PMS7003;65043;48.392;-4.472;2023-12-14T04:52:04;1.00;1.00;0.00
76238;PMS7003;65043;48.392;-4.472;2023-12-14T04:54:31;3.75;2.00;1.00
76238;PMS7003;65043;48.392;-4.472;2023-12-14T04:56:56;2.25;1.00;1.00
76238;PMS7003;65043;48.392;-4.472;2023-12-14T04:59:22;4.25;1.75;1.75
76238;PMS7003;65043;48.392;-4.472;2023-12-14T05:01:47;3.00;2.00;1.00
76238;PMS7003;65043;48.392;-4.472;2023-12-14T05:04:13;2.00;1.75;1.00
76238;PMS7003;65043;48.392;-4.472;2023-12-14T05:06:38;1.00;1.00;1.00
76238;PMS7003;65043;48.392;-4.472;2023-12-14T05:09:04;2.75;1.00;0.75
76238;PMS7003;65043;48.392;-4.472;2023-12-14T05:11:31;2.00;1.75;1.00
76238;PMS7003;65043;48.392;-4.472;2023-12-14T05:13:57;1.00;1.00;0.00
76238;PMS7003;65043;48.392;-4.472;2023-12-14T05:16:23;1.00;1.00;0.00
76238;PMS7003;65043;48.392;-4.472;2023-12-14T05:18:55;0.00;0.00;0.00
76238;PMS7003;65043;48.392;-4.472;2023-12-14T05:21:20;3.00;0.00;0.00
76238;PMS7003;65043;48.392;-4.472;2023-12-14T05:23:46;3.50;1.00;0.00
76238;PMS7003;65043;48.392;-4.472;2023-12-14T05:26:11;1.00;0.00;0.00
76238;PMS7003;65043;48.392;-4.472;2023-12-14T05:28:37;0.25;0.25;0.00
76238;PMS7003;65043;48.392;-4.472;2023-12-14T05:31:05;2.75;1.00;0.00
76238;PMS7003;65043;48.392;-4.472;2023-12-14T05:33:30;0.75;0.00;0.00
76238;PMS7003;65043;48.392;-4.472;2023-12-14T05:35:56;1.75;0.50;0.00
76238;PMS7003;65043;48.392;-4.472;2023-12-14T05:38:22;1.00;0.75;0.00
76238;PMS7003;65043;48.392;-4.472;2023-12-14T05:40:47;1.25;1.00;0.25
76238;PMS7003;65043;48.392;-4.472;2023-12-14T05:43:13;1.00;1.00;0.00
76238;PMS7003;65043;48.392;-4.472;2023-12-14T05:45:38;3.50;0.50;0.00
76238;PMS7003;65043;48.392;-4.472;2023-12-14T05:48:04;2.00;1.00;0.25
76238;PMS7003;65043;48.392;-4.472;2023-12-14T05:50:32;2.25;1.00;1.00
76238;PMS7003;65043;48.392;-4.472;2023-12-14T05:52:58;1.50;1.00;1.00
76238;PMS7003;65043;48.392;-4.472;2023-12-14T05:55:26;5.50;2.50;1.00
76238;PMS7003;65043;48.392;-4.472;2023-12-14T05:57:52;2.25;1.25;1.00
76238;PMS7003;65043;48.392;-4.472;2023-12-14T06:00:20;2.00;1.25;1.00
76238;PMS7003;65043;48.392;-4.472;2023-12-14T06:02:45;3.25;2.00;1.00
76238;PMS7003;65043;48.392;-4.472;2023-12-14T06:05:10;1.25;1.25;0.50
76238;PMS7003;65043;48.392;-4.472;2023-12-14T06:07:36;0.00;0.00;0.00
76238;PMS7003;65043;48.392;-4.472;2023-12-14T06:10:02;0.00;0.00;0.00
76238;PMS7003;65043;48.392;-4.472;2023-12-14T06:12:28;0.25;0.25;0.00
76238;PMS7003;65043;48.392;-4.472;2023-12-14T06:14:56;1.50;1.00;1.00
76238;PMS7003;65043;48.392;-4.472;2023-12-14T06:17:22;6.00;1.00;0.50
76238;PMS7003;65043;48.392;-4.472;2023-12-14T06:19:47;0.25;0.25;0.00
76238;PMS7003;65043;48.392;-4.472;2023-12-14T06:22:12;0.00;0.00;0.00
76238;PMS7003;65043;48.392;-4.472;2023-12-14T06:24:38;1.00;0.50;0.00
76238;PMS7003;65043;48.392;-4.472;2023-12-14T06:27:03;0.75;0.75;0.00
76238;PMS7003;65043;48.392;-4.472;2023-12-14T06:29:29;1.00;1.00;1.00
76238;PMS7003;65043;48.392;-4.472;2023-12-14T06:31:54;2.00;2.00;0.00
76238;PMS7003;65043;48.392;-4.472;2023-12-14T06:34:20;3.00;3.00;2.00
76238;PMS7003;65043;48.392;-4.472;2023-12-14T06:36:45;4.50;1.25;1.00
76238;PMS7003;65043;48.392;-4.472;2023-12-14T06:39:11;2.00;2.00;1.00
76238;PMS7003;65043;48.392;-4.472;2023-12-14T06:41:37;3.00;1.00;1.00
76238;PMS7003;65043;48.392;-4.472;2023-12-14T06:44:02;0.00;0.00;0.00
76238;PMS7003;65043;48.392;-4.472;2023-12-14T06:46:28;5.25;1.75;1.00
76238;PMS7003;65043;48.392;-4.472;2023-12-14T06:48:54;2.00;0.25;0.00
76238;PMS7003;65043;48.392;-4.472;2023-12-14T06:51:20;3.50;1.50;0.75
76238;PMS7003;65043;48.392;-4.472;2023-12-14T06:53:46;0.25;0.25;0.00
76238;PMS7003;65043;48.392;-4.472;2023-12-14T06:56:12;1.75;1.75;0.00
76238;PMS7003;65043;48.392;-4.472;2023-12-14T06:58:38;4.25;0.25;0.00
76238;PMS7003;65043;48.392;-4.472;2023-12-14T07:01:05;2.00;0.00;0.00
76238;PMS7003;65043;48.392;-4.472;2023-12-14T07:03:31;0.00;0.00;0.00
76238;PMS7003;65043;48.392;-4.472;2023-12-14T07:05:57;2.25;0.75;0.00
76238;PMS7003;65043;48.392;-4.472;2023-12-14T07:08:23;3.00;0.00;0.00
76238;PMS7003;65043;48.392;-4.472;2023-12-14T07:10:49;1.25;1.00;0.00
76238;PMS7003;65043;48.392;-4.472;2023-12-14T07:13:14;1.25;0.25;0.00
76238;PMS7003;65043;48.392;-4.472;2023-12-14T07:15:40;1.25;0.00;0.00
76238;PMS7003;65043;48.392;-4.472;2023-12-14T07:18:06;1.00;1.00;0.00
76238;PMS7003;65043;48.392;-4.472;2023-12-14T07:20:31;1.75;0.00;0.00
76238;PMS7003;65043;48.392;-4.472;2023-12-14T07:22:57;2.00;0.50;0.00
76238;PMS7003;65043;48.392;-4.472;2023-12-14T07:25:25;0.00;0.00;0.00
76238;PMS7003;65043;48.392;-4.472;2023-12-14T07:27:50;0.25;0.25;0.00
76238;PMS7003;65043;48.392;-4.472;2023-12-14T07:30:16;0.75;0.75;0.00
76238;PMS7003;65043;48.392;-4.472;2023-12-14T07:32:42;2.75;0.75;0.00
76238;PMS7003;65043;48.392;-4.472;2023-12-14T07:35:07;0.50;0.50;0.00
76238;PMS7003;65043;48.392;-4.472;2023-12-14T07:37:33;3.00;0.00;0.00
76238;PMS7003;65043;48.392;-4.472;2023-12-14T07:39:59;2.25;0.00;0.00
76238;PMS7003;65043;48.392;-4.472;2023-12-14T07:42:24;1.50;1.00;0.00
76238;PMS7003;65043;48.392;-4.472;2023-12-14T07:44:50;0.25;0.25;0.00
76238;PMS7003;65043;48.392;-4.472;2023-12-14T07:47:16;1.50;1.00;0.00
76238;PMS7003;65043;48.392;-4.472;2023-12-14T07:49:41;0.00;0.00;0.00
76238;PMS7003;65043;48.392;-4.472;2023-12-14T07:52:07;2.25;0.75;0.00
76238;PMS7003;65043;48.392;-4.472;2023-12-14T07:54:33;1.50;1.50;0.00
76238;PMS7003;65043;48.392;-4.472;2023-12-14T07:56:58;1.00;1.00;0.00
76238;PMS7003;65043;48.392;-4.472;2023-12-14T07:59:24;1.00;1.00;0.00
76238;PMS7003;65043;48.392;-4.472;2023-12-14T08:01:49;2.00;2.00;1.00
76238;PMS7003;65043;48.392;-4.472;2023-12-14T08:04:15;0.25;0.25;0.00
76238;PMS7003;65043;48.392;-4.472;2023-12-14T08:06:40;1.75;1.00;1.00
76238;PMS7003;65043;48.392;-4.472;2023-12-14T08:09:06;2.00;2.00;0.25
76238;PMS7003;65043;48.392;-4.472;2023-12-14T08:11:32;4.00;2.00;1.00
76238;PMS7003;65043;48.392;-4.472;2023-12-14T08:13:58;1.75;1.00;0.75
76238;PMS7003;65043;48.392;-4.472;2023-12-14T08:16:24;5.00;1.00;0.00
76238;PMS7003;65043;48.392;-4.472;2023-12-14T08:18:50;2.00;1.00;0.00
76238;PMS7003;65043;48.392;-4.472;2023-12-14T08:21:15;2.75;1.00;0.00
76238;PMS7003;65043;48.392;-4.472;2023-12-14T08:23:41;1.00;1.00;1.00
76238;PMS7003;65043;48.392;-4.472;2023-12-14T08:26:07;1.50;1.50;1.00
76238;PMS7003;65043;48.392;-4.472;2023-12-14T08:28:35;5.00;1.00;0.00
76238;PMS7003;65043;48.392;-4.472;2023-12-14T08:31:01;1.75;1.00;1.00
76238;PMS7003;65043;48.392;-4.472;2023-12-14T08:33:29;2.50;1.00;0.50
76238;PMS7003;65043;48.392;-4.472;2023-12-14T08:35:55;2.00;2.00;1.00
76238;PMS7003;65043;48.392;-4.472;2023-12-14T08:38:21;6.25;1.00;0.75
76238;PMS7003;65043;48.392;-4.472;2023-12-14T08:40:46;4.50;2.75;2.00
76238;PMS7003;65043;48.392;-4.472;2023-12-14T08:43:12;2.75;2.00;1.00
76238;PMS7003;65043;48.392;-4.472;2023-12-14T08:45:37;2.75;1.25;1.00
76238;PMS7003;65043;48.392;-4.472;2023-12-14T08:48:03;1.50;1.50;1.00
76238;PMS7003;65043;48.392;-4.472;2023-12-14T08:50:29;1.75;1.75;0.75
76238;PMS7003;65043;48.392;-4.472;2023-12-14T08:52:54;4.25;2.00;1.00
76238;PMS7003;65043;48.392;-4.472;2023-12-14T08:55:20;2.00;1.75;1.00
76238;PMS7003;65043;48.392;-4.472;2023-12-14T08:57:46;5.25;3.75;1.00
76238;PMS7003;65043;48.392;-4.472;2023-12-14T09:00:12;2.25;2.00;0.25
76238;PMS7003;65043;48.392;-4.472;2023-12-14T09:02:38;2.50;1.00;0.25
76238;PMS7003;65043;48.392;-4.472;2023-12-14T09:05:03;5.50;2.00;1.00
76238;PMS7003;65043;48.392;-4.472;2023-12-14T09:07:32;2.25;1.00;1.00
76238;PMS7003;65043;48.392;-4.472;2023-12-14T09:09:58;3.25;2.00;1.00
76238;PMS7003;65043;48.392;-4.472;2023-12-14T09:12:23;2.00;2.00;1.00
76238;PMS7003;65043;48.392;-4.472;2023-12-14T09:14:49;2.00;2.00;1.00
76238;PMS7003;65043;48.392;-4.472;2023-12-14T09:17:14;3.00;1.50;0.25
76238;PMS7003;65043;48.392;-4.472;2023-12-14T09:19:40;3.75;1.00;1.00
76238;PMS7003;65043;48.392;-4.472;2023-12-14T09:22:05;2.00;0.75;0.75
76238;PMS7003;65043;48.392;-4.472;2023-12-14T09:24:31;3.00;3.00;1.50
76238;PMS7003;65043;48.392;-4.472;2023-12-14T09:26:57;3.00;2.00;0.25
76238;PMS7003;65043;48.392;-4.472;2023-12-14T09:29:22;3.00;2.25;1.00
76238;PMS7003;65043;48.392;-4.472;2023-12-14T09:31:48;1.75;1.75;1.00
76238;PMS7003;65043;48.392;-4.472;2023-12-14T09:34:13;1.75;1.75;1.00
76238;PMS7003;65043;48.392;-4.472;2023-12-14T09:36:39;5.75;2.00;2.00
76238;PMS7003;65043;48.392;-4.472;2023-12-14T09:39:05;2.50;2.25;1.00
76238;PMS7003;65043;48.392;-4.472;2023-12-14T09:41:30;4.00;1.00;1.00
76238;PMS7003;65043;48.392;-4.472;2023-12-14T09:43:56;1.00;1.00;0.50
76238;PMS7003;65043;48.392;-4.472;2023-12-14T09:46:22;2.25;1.00;1.00
76238;PMS7003;65043;48.392;-4.472;2023-12-14T09:48:49;2.00;2.00;1.00
76238;PMS7003;65043;48.392;-4.472;2023-12-14T09:51:16;3.75;3.00;1.00
76238;PMS7003;65043;48.392;-4.472;2023-12-14T09:53:42;1.00;1.00;1.00
76238;PMS7003;65043;48.392;-4.472;2023-12-14T09:56:07;3.00;1.50;0.00
76238;PMS7003;65043;48.392;-4.472;2023-12-14T09:58:33;1.00;1.00;0.00
76238;PMS7003;65043;48.392;-4.472;2023-12-14T10:00:59;1.00;1.00;0.00
76238;PMS7003;65043;48.392;-4.472;2023-12-14T10:03:29;2.75;2.00;1.00
76238;PMS7003;65043;48.392;-4.472;2023-12-14T10:05:57;6.75;4.25;1.00
76238;PMS7003;65043;48.392;-4.472;2023-12-14T10:08:24;6.75;3.00;1.75
76238;PMS7003;65043;48.392;-4.472;2023-12-14T10:10:52;3.75;2.00;0.25
76238;PMS7003;65043;48.392;-4.472;2023-12-14T10:13:19;1.25;0.00;0.00
76238;PMS7003;65043;48.392;-4.472;2023-12-14T10:15:46;3.25;2.00;0.00
76238;PMS7003;65043;48.392;-4.472;2023-12-14T10:18:23;3.25;1.50;0.50
76238;PMS7003;65043;48.392;-4.472;2023-12-14T10:20:49;1.25;0.25;0.00
76238;PMS7003;65043;48.392;-4.472;2023-12-14T10:23:15;1.00;1.00;0.00
76238;PMS7003;65043;48.392;-4.472;2023-12-14T10:25:41;1.00;1.00;0.00
76238;PMS7003;65043;48.392;-4.472;2023-12-14T10:28:08;0.50;0.00;0.00
76238;PMS7003;65043;48.392;-4.472;2023-12-14T10:30:34;0.00;0.00;0.00
76238;PMS7003;65043;48.392;-4.472;2023-12-14T10:33:00;0.00;0.00;0.00
76238;PMS7003;65043;48.392;-4.472;2023-12-14T10:35:25;1.00;1.00;0.00
76238;PMS7003;65043;48.392;-4.472;2023-12-14T10:37:52;1.50;1.00;0.00
76238;PMS7003;65043;48.392;-4.472;2023-12-14T10:40:17;1.00;1.00;0.00
76238;PMS7003;65043;48.392;-4.472;2023-12-14T10:42:43;1.00;1.00;0.00
76238;PMS7003;65043;48.392;-4.472;2023-12-14T10:45:13;2.75;1.00;0.00
76238;PMS7003;65043;48.392;-4.472;2023-12-14T10:47:45;1.00;0.00;0.00
76238;PMS7003;65043;48.392;-4.472;2023-12-14T10:50:11;1.25;1.25;1.00
76238;PMS7003;65043;48.392;-4.472;2023-12-14T10:52:40;1.75;1.00;0.00
76238;PMS7003;65043;48.392;-4.472;2023-12-14T10:55:11;0.00;0.00;0.00
76238;PMS7003;65043;48.392;-4.472;2023-12-14T10:57:43;1.00;1.00;0.75
76238;PMS7003;65043;48.392;-4.472;2023-12-14T11:00:08;0.00;0.00;0.00
76238;PMS7003;65043;48.392;-4.472;2023-12-14T11:02:41;0.00;0.00;0.00
76238;PMS7003;65043;48.392;-4.472;2023-12-14T11:05:11;2.00;1.00;0.00
76238;PMS7003;65043;48.392;-4.472;2023-12-14T11:10:26;0.00;0.00;0.00
76238;PMS7003;65043;48.392;-4.472;2023-12-14T11:12:56;1.00;1.00;0.00
76238;PMS7003;65043;48.392;-4.472;2023-12-14T11:15:27;1.00;1.00;0.50
76238;PMS7003;65043;48.392;-4.472;2023-12-14T11:25:51;0.75;0.75;0.50
76238;PMS7003;65043;48.392;-4.472;2023-12-14T11:28:19;0.00;0.00;0.00
76238;PMS7003;65043;48.392;-4.472;2023-12-14T11:30:45;0.75;0.75;0.00
76238;PMS7003;65043;48.392;-4.472;2023-12-14T11:33:11;1.25;0.50;0.00
76238;PMS7003;65043;48.392;-4.472;2023-12-14T11:35:38;1.00;1.00;0.00
76238;PMS7003;65043;48.392;-4.472;2023-12-14T11:38:04;2.00;1.00;0.00
76238;PMS7003;65043;48.392;-4.472;2023-12-14T11:40:38;2.50;1.25;0.00
76238;PMS7003;65043;48.392;-4.472;2023-12-14T11:43:04;2.00;1.00;0.00
76238;PMS7003;65043;48.392;-4.472;2023-12-14T11:45:34;3.00;0.00;0.00
76238;PMS7003;65043;48.392;-4.472;2023-12-14T11:48:02;2.00;1.00;0.00
76238;PMS7003;65043;48.392;-4.472;2023-12-14T11:50:31;3.50;2.00;1.00
76238;PMS7003;65043;48.392;-4.472;2023-12-14T11:52:58;4.25;2.00;1.00
76238;PMS7003;65043;48.392;-4.472;2023-12-14T11:55:26;4.75;3.00;2.00
76238;PMS7003;65043;48.392;-4.472;2023-12-14T11:57:52;2.75;1.00;0.25
76238;PMS7003;65043;48.392;-4.472;2023-12-14T12:00:22;3.75;2.25;1.00
76238;PMS7003;65043;48.392;-4.472;2023-12-14T12:02:50;4.00;1.00;1.00
76238;PMS7003;65043;48.392;-4.472;2023-12-14T12:05:16;6.50;1.75;0.75
76238;PMS7003;65043;48.392;-4.472;2023-12-14T12:07:45;1.00;1.00;1.00
76238;PMS7003;65043;48.392;-4.472;2023-12-14T12:10:10;5.75;4.25;2.00
76238;PMS7003;65043;48.392;-4.472;2023-12-14T12:12:36;2.75;2.00;1.50
76238;PMS7003;65043;48.392;-4.472;2023-12-14T12:15:02;2.00;2.00;1.00
76238;PMS7003;65043;48.392;-4.472;2023-12-14T12:17:29;3.50;2.00;1.00
76238;PMS7003;65043;48.392;-4.472;2023-12-14T12:19:54;3.50;2.25;1.00
76238;PMS7003;65043;48.392;-4.472;2023-12-14T12:22:20;5.50;2.75;1.00
76238;PMS7003;65043;48.392;-4.472;2023-12-14T12:24:45;6.75;5.00;1.00
76238;PMS7003;65043;48.392;-4.472;2023-12-14T12:27:11;5.00;2.00;1.00
76238;PMS7003;65043;48.392;-4.472;2023-12-14T12:29:37;6.25;3.00;1.00
76238;PMS7003;65043;48.392;-4.472;2023-12-14T12:32:02;5.00;2.50;1.00
76238;PMS7003;65043;48.392;-4.472;2023-12-14T12:34:28;4.50;3.00;1.00
76238;PMS7003;65043;48.392;-4.472;2023-12-14T12:36:54;2.75;2.75;1.00
76238;PMS7003;65043;48.392;-4.472;2023-12-14T12:39:20;4.75;2.50;1.25
76238;PMS7003;65043;48.392;-4.472;2023-12-14T12:41:45;5.50;3.75;1.50
76238;PMS7003;65043;48.392;-4.472;2023-12-14T12:44:10;4.00;4.00;1.25
76238;PMS7003;65043;48.392;-4.472;2023-12-14T12:46:36;5.75;3.75;1.00
76238;PMS7003;65043;48.392;-4.472;2023-12-14T12:49:02;7.50;3.00;2.00
76238;PMS7003;65043;48.392;-4.472;2023-12-14T12:51:29;4.75;1.00;0.75
76238;PMS7003;65043;48.392;-4.472;2023-12-14T12:53:55;5.25;2.00;1.00
76238;PMS7003;65043;48.392;-4.472;2023-12-14T12:56:22;7.75;4.50;1.00
76238;PMS7003;65043;48.392;-4.472;2023-12-14T12:58:52;4.75;3.00;1.75
76238;PMS7003;65043;48.392;-4.472;2023-12-14T13:01:22;4.00;3.75;1.25
76238;PMS7003;65043;48.392;-4.472;2023-12-14T13:03:57;5.00;2.00;1.00
76238;PMS7003;65043;48.392;-4.472;2023-12-14T13:06:25;5.75;2.75;1.00
76238;PMS7003;65043;48.392;-4.472;2023-12-14T13:08:51;1.00;1.00;1.00
76238;PMS7003;65043;48.392;-4.472;2023-12-14T13:11:17;5.00;2.75;1.00
76238;PMS7003;65043;48.392;-4.472;2023-12-14T13:13:42;6.00;4.00;1.00
76238;PMS7003;65043;48.392;-4.472;2023-12-14T13:16:09;5.00;3.00;1.25
76238;PMS7003;65043;48.392;-4.472;2023-12-14T13:18:42;4.00;3.00;1.00
76238;PMS7003;65043;48.392;-4.472;2023-12-14T13:21:08;5.25;2.25;1.00
76238;PMS7003;65043;48.392;-4.472;2023-12-14T13:23:33;3.00;1.50;0.50
76238;PMS7003;65043;48.392;-4.472;2023-12-14T13:25:59;5.25;3.00;1.00
76238;PMS7003;65043;48.392;-4.472;2023-12-14T13:28:24;2.00;2.00;0.00
76238;PMS7003;65043;48.392;-4.472;2023-12-14T13:30:50;2.00;2.00;0.50
76238;PMS7003;65043;48.392;-4.472;2023-12-14T13:33:15;3.00;3.00;0.75
76238;PMS7003;65043;48.392;-4.472;2023-12-14T13:35:41;6.75;2.00;0.50
76238;PMS7003;65043;48.392;-4.472;2023-12-14T13:38:09;1.00;1.00;0.00
76238;PMS7003;65043;48.392;-4.472;2023-12-14T13:40:34;4.25;1.00;0.50
76238;PMS7003;65043;48.392;-4.472;2023-12-14T13:43:00;2.75;1.50;0.00
76238;PMS7003;65043;48.392;-4.472;2023-12-14T13:45:28;3.00;1.50;0.00
76238;PMS7003;65043;48.392;-4.472;2023-12-14T13:47:55;4.00;1.00;0.00
76238;PMS7003;65043;48.392;-4.472;2023-12-14T13:50:21;2.00;1.00;0.50
76238;PMS7003;65043;48.392;-4.472;2023-12-14T13:52:46;6.25;2.00;0.00
76238;PMS7003;65043;48.392;-4.472;2023-12-14T13:55:12;3.75;0.75;0.25
76238;PMS7003;65043;48.392;-4.472;2023-12-14T13:57:37;4.25;2.00;1.00
76238;PMS7003;65043;48.392;-4.472;2023-12-14T14:00:03;1.50;1.00;0.75
76238;PMS7003;65043;48.392;-4.472;2023-12-14T14:02:28;4.00;2.00;1.00
76238;PMS7003;65043;48.392;-4.472;2023-12-14T14:04:54;2.00;2.00;0.00
76238;PMS7003;65043;48.392;-4.472;2023-12-14T14:07:19;3.00;2.00;1.00
76238;PMS7003;65043;48.392;-4.472;2023-12-14T14:09:46;2.50;2.00;0.75
76238;PMS7003;65043;48.392;-4.472;2023-12-14T14:12:11;4.00;1.25;0.00
76238;PMS7003;65043;48.392;-4.472;2023-12-14T14:14:37;4.25;1.50;0.00
76238;PMS7003;65043;48.392;-4.472;2023-12-14T14:17:02;4.00;2.25;1.00
76238;PMS7003;65043;48.392;-4.472;2023-12-14T14:19:28;2.25;2.00;0.25